KNMI Weerbulletins

Hier vind u de KMNI verwachtingen en de waarnemingen

Bron: KNMI website
Laatste update op 13-04-2021 om 01:02
ZCZC
FBNL50 EHDB 121945
WEERBULLETIN VOOR DE LUCHTVAART
.
GELDIG VOOR: DE DAGLICHTPERIODE VAN DINSDAG 13 APRIL 2021.
.
SITUATIE: TUSSEN EEN HOGEDRUKGEBIED BOVEN DE BRITSE EILANDEN EN EEN
LAGEDRUKGEBIED BOVEN SCANDINAVIE VOERT EEN NOORDWESTELIJKE STROMING
MARITIEM POLAIRE LUCHT AAN. DE OPBOUW IS TUSSEN 07 EN 17.30 UTC
ONSTABIEL VAN OPBOUW TOT CA 5000 VT, IN HET NOORDEN EN OOSTEN TOT
BOVEN FL100.
.
SIGNIFICANT WEER: AANVANKELIJK IN HET NOORDEN EN VANAF DE TWEEDE
HELFT VAN OCHTEND OOK IN HET OOSTEN ENKELE GEISOLEERDE LICHTE TOT
MATIGE REGENBUIEN, MOGELIJK MET KORRELHAGEL.
.
WIND: IN HET BINNENLAND TOT 08 UTC WEST TOT ZUIDWEST 4-8 KN, ELDERS
NOORDWEST 6-12 KN, AAN ZEE EN BOVEN HET IJSSELMEER NOORDWEST 10-20
KN, IN HET NOORDELIJKE KUSTGEBIED IN DE OCHTEND 20-25 KN. IN DE
TWEEDE HELFT VAN DE OCHTEND BOVEN LAND OVERAL TOENEMEND NAAR
NOORDWEST 10-15 KN. AAN HET EINDE VAN DE PERIODE BOVEN LAND AFNEMEND
NAAR 6-11 KN, AAN DE KUST NAAR 8-15 KN.
.
BEWOLKING: IN DE OCHTEND VOORAL IN DE NOORDOOSTELIJKE HELFT BKN SC
2500-3500 VT EN VANAF 08 UTC IN HET HELE LAND ONTWIKKELING VAN
FEW/SCT CU 2000-3000 VT, TOPPEN TOT ONGEVEER 5000 VT. BIJ EEN BUI FEW
TCU/CB ROND 2000 VT, TOPPEN TOT ROND/BOVEN FL100.
.
ZICHT: MEER DAN 10 KM, IN EEN BUI 5-8 KM, IN EEN HAGELBUI MOGELIJK
3-5 KM.
.
NULGRADEN NIVEAU: ROND 2000 VT. AANVANKELIJK LOKAAL AAN DE GROND.
.
THERMIEK: VANAF 07 UTC ZWAK, SPOEDIG MATIG, LOKAAL DOOR BUIEN
VERSTOORD EN IN HET NOORDEN LOKAAL VERWAAID. ROND 17.30 UITDOVEND.
.
DAGLICHTPERIODE: 04.33 TOT 18.50 UTC.=
NNNN
Bron: KNMI website
Laatste update op 13-04-2021 om 01:02
ZCZC
FT121700 EHLE     LELYSTAD/LELYSTAD   NLD   -3 m.
TAF EHLE 121659Z 1218/1324 26006KT 9999 FEW030
    BECMG 1306/1309 30012KT
    BECMG 1317/1320 VRB03KT=
ZCZC
FT121700 EHAM     AMSTERDAM/SCHIPHOL   NLD   -3 m.
TAF EHAM 121659Z 1218/1324 29009KT 9999 FEW030=
ZCZC
FT121700 EHRD     ROTTERDAM/THE HAGUE AIRPORT   NLD   -5 m.
TAF EHRD 121659Z 1218/1324 29008KT 9999 FEW030=
ZCZC
FT121700 EHGG     GRONINGEN/EELDE   NLD   5 m.
TAF EHGG 121659Z 1218/1324 27009KT 9999 SCT025
    PROB40 TEMPO 1218/1316 30015KT 6000 SHRA FEW018CB BKN020
    BECMG 1306/1309 31012KT
    BECMG 1317/1320 27006KT=
ZCZC
FT121700 EHBK     MAASTRICHT/MAASTRICHT-AACHEN   NLD   114 m.
TAF EHBK 121659Z 1218/1324 30004KT CAVOK
    PROB30 TEMPO 1309/1317 33010KT 7000 -SHRA FEW020CB BKN030=
ZCZC
FT121700 EHEH     EINDHOVEN/EINDHOVEN   NLD   22 m.
TAF EHEH 121744Z 1218/1324 29008KT CAVOK
    PROB40 TEMPO 1309/1314 4500 -SHRA SCT018CB
    BECMG 1320/1322 VRB02KT=
ZCZC
FC122100 EHKD     DE KOOY/DE KOOY   NLD   1 m.
TAF AMD EHKD 121940Z 1220/1305 30012KT 9999 FEW018 SCT020
    TEMPO 1220/1223 31010G20KT 3500 SHRA FEW009 SCT014 SCT018CB
    PROB30 TEMPO 1223/1303 4500 -SHRA SCT020CB=
ZCZC
FC122100 EHGR     GILZE-RIJEN/GILZE-RIJEN   NLD   14 m.
TAF EHGR 122100Z NIL=
ZCZC
FC122100 EHLW     LEEUWARDEN/LEEUWARDEN   NLD   1 m.
TAF EHLW 122028Z 1221/1309 28010KT 9999 SCT030
    PROB40 TEMPO 1221/1303 30012G22KT 4000 -SHRA SCT018CB
    TEMPO 1306/1309 4500 -SHRA SCT015CB=
ZCZC
FC122100 EHVK     VOLKEL/VOLKEL   NLD   21 m.
TAF EHVK 122031Z 1221/1309 27004KT CAVOK=
ZCZC
FC122100 EHWO     WOENSDRECHT/WOENSDRECHT   NLD   19 m.
TAF EHWO 122100Z NIL=
Bron: KNMI website
Laatste update op 13-04-2021 om 01:03
ZCZC
SA122225 EHFS     VLISSINGEN AWS   NLD   8 m.
METAR EHFS 122225Z AUTO 31006KT 9999 BKN031/// BKN036/// OVC040///
05/M00 Q1031=
ZCZC
SA122225 EHSG     BSA   NLD   43 m.
METAR EHSG 122225Z AUTO 33008KT //// // FEW022/// 06/00 Q1031 RE//=
ZCZC
SA122255 EHKD     DE KOOY/DE KOOY   NLD   1 m.
METAR EHKD 122255Z AUTO 31008KT 280V350 9999 NCD 04/01 Q1029 BLU=
ZCZC
SA122255 EHFD     F3-FB-1   NLD   50 m.
METAR EHFD 122255Z AUTO /////KT 9999 FEW021/// 06/M00 Q1025=
ZCZC
SA122255 EHAM     AMSTERDAM/SCHIPHOL   NLD   -3 m.
METAR EHAM 122255Z 29005KT 9999 FEW025 01/M01 Q1030 NOSIG=
ZCZC
SA122255 EHVL     VLIELAND   NLD   10 m.
METAR EHVL 122255Z AUTO 31016KT 9999 NCD 05/02 Q1029 BLU=
ZCZC
SA122255 EHJR     K13-A   NLD   37 m.
METAR EHJR 122255Z AUTO 32014KT //// // ///////// 05/M01 Q1030 RE//
W06/H18=
ZCZC
SA122255 EHLE     LELYSTAD/LELYSTAD   NLD   -3 m.
METAR EHLE 122255Z AUTO 27004KT 9999 FEW023 SCT029 01/M00 Q1030=
ZCZC
SA122255 EHLW     LEEUWARDEN/LEEUWARDEN   NLD   1 m.
METAR EHLW 122255Z AUTO 29008KT 9999 FEW015CB SCT039 03/01 Q1028 BLU=
ZCZC
SA122255 EHDL     ARNHEM/DEELEN   NLD   48 m.
METAR EHDL 122255Z AUTO 12001KT 9999 NCD M02/M04 Q1030 BLU=
ZCZC
SA122255 EHGG     GRONINGEN/EELDE   NLD   5 m.
METAR EHGG 122255Z AUTO 25006KT 9999 NCD 01/M00 Q1028=
ZCZC
SA122255 EHSC     LICHTEILAND GOEREE   NLD   22 m.
METAR EHSC 122255Z AUTO 34010KT 9999 ///////// 06/00 Q1031 W07/H11=
ZCZC
SA122255 EHSA     EURO PLATFORM   NLD   19 m.
METAR EHSA 122255Z AUTO 32008KT 9999 ///////// 06/01 Q1031 W08/H11=
ZCZC
SA122255 EHWO     WOENSDRECHT/WOENSDRECHT   NLD   19 m.
METAR EHWO 122255Z AUTO 24002KT 9999 FEW025 M00/M02 Q1031 BLU=
ZCZC
SA122255 EHRD     ROTTERDAM/THE HAGUE AIRPORT   NLD   -5 m.
METAR EHRD 122255Z AUTO 30004KT 260V350 9999 -UP FEW015 SCT020 BKN024
02/00 Q1031 NOSIG=
ZCZC
SA122255 EHGR     GILZE-RIJEN/GILZE-RIJEN   NLD   14 m.
METAR EHGR 122255Z AUTO 24005KT 230V300 9999 NCD 02/M02 Q1031 BLU=
ZCZC
SA122255 EHEH     EINDHOVEN/EINDHOVEN   NLD   22 m.
METAR EHEH 122255Z AUTO 24002KT 9999 NCD M01/M03 Q1031 BLU=
ZCZC
SA122255 EHVK     VOLKEL/VOLKEL   NLD   21 m.
METAR EHVK 122255Z AUTO 25003KT 9999 NCD 01/M02 Q1030 BLU=
ZCZC
SA122255 EHBK     MAASTRICHT/MAASTRICHT-AACHEN   NLD   114 m.
METAR EHBK 122255Z AUTO 25003KT 230V290 9999 NCD 01/M00 Q1030=
ZCZC
SA122255 EHFZ     F16-A   NLD   43 m.
METAR EHFZ 122255Z NIL=
ZCZC
SA122255 EHKV     K14-FA-1C   NLD   41 m.
METAR EHKV 122255Z AUTO 30015KT 260V360 9999 NCD 05/00 Q1029=
ZCZC
SA122255 EHMG     L9-FF-1   NLD   44 m.
METAR EHMG 122255Z AUTO 30024KT 9999 NCD 06/02 Q1029=
ZCZC
SA122255 EHMA     AWG-1   NLD   40 m.
METAR EHMA 122255Z AUTO 29022KT 9999 FEW015 SCT018 05/02 Q1027=
ZCZC
SA122255 EHDV     D15-FA-1   NLD   42 m.
METAR EHDV 122255Z AUTO 30021KT 9999 FEW019/// 06/01 Q1029=
ZCZC
SA122255 EHAK     A12-CPP   NLD   48 m.
METAR EHAK 122255Z AUTO 34030KT 8000 -RA FEW019/// SCT025///
BKN034/// 05/00 Q1026 RERA REDZ=
ZCZC
SA122255 EHQE     HOORN-A   NLD   50 m.
METAR EHQE 122255Z AUTO 28017KT 9999 FEW023 SCT028 05/M01 Q1030=
ZCZC
SA122255 EHJA     J6-A   NLD   45 m.
METAR EHJA 122255Z AUTO 31016KT 9999 NCD 05/01 Q1029=
ZCZC
SA122255 EHPG     P11-B   NLD   41 m.
METAR EHPG 122255Z AUTO VRB07KT 9999 FEW017 06/01 Q1031=
ZCZC
SA122255 EHHW     BUITENGAATS/BG-OHVS2      42 m.
METAR EHHW 122255Z AUTO 31018KT 9999 FEW017/// 05/01 Q1026=